メインページ
METAR-TAF:

METAR-TAF

空港 :

ソフィア, ブルガリア

ソフィア空港

緯度: 42-39N, 経度: 023-23E, 海抜: 586m

現時点の気象観測

当レポートは32分前の05:30(UTC)に作成
変向風 2kt
気温 18°C
湿度 59%
気圧 1017 hPa
視程10km以上
1,500メートル以下は雲なし、積乱雲なし

METAR: LBSF 200530Z VRB02KT CAVOK 18/10 Q1017 NOSIG

時間: 09:02 (06:02 UTC)

予報

当レポートは1時間2分前の05:00(UTC)に作成
予報は20日の 06時(UTC)から 21日の 06時(UTC)まで有効
変向風 4kt
視程10km以上
1,500メートル以下は雲なし、積乱雲なし
20日の 08時(UTC)から 20日の 10時(UTC)まで徐々に
東/南東の風 14kt
20日の 22時(UTC)から 20日の 24時(UTC)まで徐々に
西の風 14kt
高度4000ftの雲は散在している
高度6000ftの雲は散在している
確率 30% :
21日の 00時(UTC)から 21日の 06時(UTC)まで一時的に
視程: 5000m
高度1000ftの雲はほとんどない
高度3000ftの雲は散在している, 積乱雲.
高度4000ftの千切れ雲あり
激しい雷雨, 雨

TAF: LBSF 200500Z 2006/2106 VRB04KT CAVOK BECMG 2008/2010 11014KT BECMG 2022/2024 27014KT SCT040 SCT060 PROB30 TEMPO 2100/2106 5000 TSRA FEW010 SCT030CB BKN040

4,000以上の空港の気象観測と天気予報(METAR報とTAF報)

利用可能な観測所は地図上に黄色い丸と赤い丸で示す。

丸の上にカーソルを重ねると観測所名を参照できる。

次にクリックすると気象観測と天気予報を参照できる。

マップの切り替え:黒色「×」印の緑ボタンをクリックして拡大、「-」印の緑ボタンをクリックして縮小、緑色の三角印をクリックして隣りの地図に切り替え


METAR-TAF: